createdAt,value
2022-11-23T00:01:35.245Z,7.57
2022-11-23T00:04:06.189Z,7.52
2022-11-23T00:06:33.908Z,7.54
2022-11-23T00:09:01.016Z,7.49
2022-11-23T00:11:28.479Z,7.52
2022-11-23T00:13:56.039Z,7.38
2022-11-23T00:16:27.281Z,7.38
2022-11-23T00:19:01.902Z,7.34
2022-11-23T00:21:31.741Z,7.19
2022-11-23T00:23:59.189Z,7.28
2022-11-23T00:26:26.246Z,7.30
2022-11-23T00:28:53.228Z,7.26
2022-11-23T00:31:21.720Z,7.21
2022-11-23T00:33:53.839Z,7.15
2022-11-23T00:36:22.692Z,7.15
2022-11-23T00:38:50.544Z,7.14
2022-11-23T00:41:24.464Z,7.21
2022-11-23T00:43:51.350Z,7.26
2022-11-23T00:46:24.551Z,7.14
2022-11-23T00:48:53.958Z,7.12
2022-11-23T00:51:25.894Z,7.01
2022-11-23T00:53:53.103Z,6.97
2022-11-23T00:56:20.548Z,7.01
2022-11-23T00:58:51.702Z,6.98
2022-11-23T01:01:22.203Z,6.95
2022-11-23T01:03:53.472Z,6.91
2022-11-23T01:06:36.232Z,6.89
2022-11-23T01:09:13.496Z,6.95
2022-11-23T01:11:40.595Z,6.92
2022-11-23T01:14:07.628Z,7.00
2022-11-23T01:16:38.070Z,6.97
2022-11-23T01:19:10.225Z,7.00
2022-11-23T01:21:37.732Z,6.96
2022-11-23T01:24:07.234Z,6.91
2022-11-23T01:26:34.141Z,6.85
2022-11-23T01:29:00.932Z,6.86
2022-11-23T01:31:27.771Z,6.85
2022-11-23T01:33:57.093Z,6.86
2022-11-23T01:36:28.837Z,6.83
2022-11-23T01:38:56.202Z,6.86
2022-11-23T01:41:29.852Z,6.83
2022-11-23T01:43:57.035Z,6.87
2022-11-23T01:46:23.900Z,6.85
2022-11-23T01:49:02.378Z,6.91
2022-11-23T01:51:37.719Z,6.89
2022-11-23T01:54:15.107Z,6.89
2022-11-23T01:56:46.745Z,6.89
2022-11-23T01:59:18.494Z,6.93
2022-11-23T02:01:45.669Z,6.94
2022-11-23T02:04:21.653Z,6.93
2022-11-23T02:06:48.635Z,6.86
2022-11-23T02:09:17.235Z,6.99
2022-11-23T02:11:44.680Z,6.91
2022-11-23T02:14:11.758Z,6.98
2022-11-23T02:16:40.548Z,7.03
2022-11-23T02:19:47.697Z,6.98
2022-11-23T02:22:49.688Z,7.02
2022-11-23T02:25:47.832Z,7.02
2022-11-23T02:28:30.241Z,7.10
2022-11-23T02:30:57.115Z,7.06
2022-11-23T02:33:25.262Z,7.11
2022-11-23T02:36:00.807Z,7.11
2022-11-23T02:38:32.749Z,7.15
2022-11-23T02:40:59.726Z,7.10
2022-11-23T02:43:27.062Z,7.10
2022-11-23T02:45:57.476Z,7.07
2022-11-23T02:48:24.765Z,7.14
2022-11-23T02:50:51.679Z,7.06
2022-11-23T02:53:19.108Z,7.05
2022-11-23T02:55:46.064Z,7.02
2022-11-23T02:58:12.922Z,7.02
2022-11-23T03:00:40.109Z,6.93
2022-11-23T03:03:07.333Z,6.91
2022-11-23T03:05:35.037Z,6.93
2022-11-23T03:08:01.832Z,6.92
2022-11-23T03:10:28.706Z,6.90
2022-11-23T03:12:56.887Z,6.95
2022-11-23T03:15:24.858Z,6.92
2022-11-23T03:17:51.882Z,6.90
2022-11-23T03:20:18.916Z,6.61
2022-11-23T03:22:46.321Z,6.75
2022-11-23T03:25:13.701Z,6.83
2022-11-23T03:27:40.648Z,6.79
2022-11-23T03:30:08.975Z,6.74
2022-11-23T03:32:36.537Z,6.76
2022-11-23T03:35:04.505Z,6.75
2022-11-23T03:37:31.296Z,6.67
2022-11-23T03:39:58.087Z,6.73
2022-11-23T03:42:25.002Z,6.74
2022-11-23T03:44:51.784Z,6.70
2022-11-23T03:47:18.571Z,6.68
2022-11-23T03:49:45.747Z,6.75
2022-11-23T03:52:12.575Z,6.68
2022-11-23T03:54:39.401Z,6.60
2022-11-23T03:57:06.213Z,6.58
2022-11-23T03:59:33.249Z,6.51
2022-11-23T04:02:00.367Z,6.55
2022-11-23T04:04:27.185Z,6.56
2022-11-23T04:06:53.987Z,6.52
2022-11-23T04:09:20.754Z,6.53
2022-11-23T04:11:47.866Z,6.53
2022-11-23T04:14:14.629Z,6.53
2022-11-23T04:16:41.479Z,6.56
2022-11-23T04:19:08.330Z,6.44
2022-11-23T04:21:35.226Z,6.49
2022-11-23T04:24:02.116Z,6.45
2022-11-23T04:26:28.943Z,6.47
2022-11-23T04:28:55.734Z,6.47
2022-11-23T04:31:22.565Z,6.51
2022-11-23T04:33:49.385Z,6.47
2022-11-23T04:36:16.280Z,6.46
2022-11-23T04:38:43.192Z,6.56
2022-11-23T04:41:10.913Z,6.56
2022-11-23T04:43:37.670Z,6.55
2022-11-23T04:46:04.658Z,6.50
2022-11-23T04:48:31.968Z,6.46
2022-11-23T04:50:59.454Z,6.54
2022-11-23T04:53:26.233Z,6.60
2022-11-23T04:55:52.990Z,6.56
2022-11-23T04:58:19.860Z,6.61
2022-11-23T05:00:46.757Z,6.64
2022-11-23T05:03:13.678Z,6.57
2022-11-23T05:05:41.592Z,6.62
2022-11-23T05:08:08.775Z,6.61
2022-11-23T05:10:37.244Z,6.59
2022-11-23T05:13:04.500Z,6.58
2022-11-23T05:15:31.237Z,6.57
2022-11-23T05:18:06.982Z,6.56
2022-11-23T05:20:34.801Z,6.54
2022-11-23T05:23:01.646Z,6.53
2022-11-23T05:25:28.414Z,6.54
2022-11-23T05:27:55.271Z,6.54
2022-11-23T05:30:22.237Z,6.30
2022-11-23T05:32:49.043Z,6.52
2022-11-23T05:35:15.962Z,6.55
2022-11-23T05:37:42.961Z,6.56
2022-11-23T05:40:11.454Z,6.42
2022-11-23T05:42:38.341Z,6.56
2022-11-23T05:45:11.043Z,6.52
2022-11-23T05:47:38.491Z,6.51
2022-11-23T05:50:06.531Z,6.51
2022-11-23T05:52:33.366Z,6.52
2022-11-23T05:55:00.176Z,6.50
2022-11-23T05:57:26.921Z,6.45
2022-11-23T05:59:53.750Z,6.54
2022-11-23T06:02:20.495Z,6.54
2022-11-23T06:04:47.262Z,6.50
2022-11-23T06:07:14.145Z,6.44
2022-11-23T06:09:40.984Z,6.51
2022-11-23T06:12:07.988Z,6.50
2022-11-23T06:14:34.816Z,6.47
2022-11-23T06:17:01.721Z,6.37
2022-11-23T06:19:30.523Z,6.41
2022-11-23T06:21:58.101Z,6.40
2022-11-23T06:24:25.640Z,6.38
2022-11-23T06:26:52.923Z,6.38
2022-11-23T06:29:22.758Z,6.34
2022-11-23T06:31:49.526Z,6.34
2022-11-23T06:34:16.581Z,6.31
2022-11-23T06:36:43.405Z,6.29
2022-11-23T06:39:10.449Z,6.25
2022-11-23T06:41:37.408Z,6.30
2022-11-23T06:44:04.444Z,6.28
2022-11-23T06:46:31.944Z,6.29
2022-11-23T06:48:58.931Z,6.29
2022-11-23T06:51:25.766Z,6.25
2022-11-23T06:53:52.547Z,6.22
2022-11-23T06:56:19.304Z,6.27
2022-11-23T06:58:46.092Z,6.25
2022-11-23T07:01:13.055Z,6.23
2022-11-23T07:03:40.099Z,6.22
2022-11-23T07:06:09.197Z,6.29
2022-11-23T07:08:39.783Z,6.18
2022-11-23T07:11:06.802Z,6.18
2022-11-23T07:13:33.838Z,6.15
2022-11-23T07:16:00.657Z,6.19
2022-11-23T07:18:27.669Z,6.19
2022-11-23T07:20:54.517Z,6.20
2022-11-23T07:23:21.273Z,6.16
2022-11-23T07:25:48.038Z,6.15
2022-11-23T07:28:14.949Z,6.16
2022-11-23T07:30:41.788Z,6.13
2022-11-23T07:33:11.754Z,6.12
2022-11-23T07:35:40.434Z,6.11
2022-11-23T07:38:09.068Z,6.12
2022-11-23T07:40:39.871Z,6.11
2022-11-23T07:43:07.687Z,6.14
2022-11-23T07:45:36.632Z,6.15
2022-11-23T07:48:07.610Z,6.13
2022-11-23T07:50:37.121Z,6.17
2022-11-23T07:53:05.587Z,6.15
2022-11-23T07:55:33.385Z,6.13
2022-11-23T07:58:00.593Z,6.13
2022-11-23T08:00:29.019Z,6.10
2022-11-23T08:03:26.168Z,6.21
2022-11-23T08:05:46.686Z,6.24
2022-11-23T08:08:13.506Z,6.27
2022-11-23T08:10:45.101Z,6.12
2022-11-23T08:13:14.072Z,6.31
2022-11-23T08:15:40.822Z,6.32
2022-11-23T08:18:07.667Z,6.35
2022-11-23T08:20:34.557Z,6.39
2022-11-23T08:23:01.433Z,6.42
2022-11-23T08:25:29.857Z,6.44
2022-11-23T08:28:03.449Z,6.45
2022-11-23T08:30:32.179Z,6.50
2022-11-23T08:33:03.193Z,6.52
2022-11-23T08:35:30.189Z,6.56
2022-11-23T08:37:56.982Z,6.57
2022-11-23T08:40:25.624Z,6.64
2022-11-23T08:42:52.832Z,6.68
2022-11-23T08:45:19.640Z,6.70
2022-11-23T08:47:46.515Z,6.75
2022-11-23T08:50:14.188Z,6.77
2022-11-23T08:52:41.111Z,6.79
2022-11-23T08:55:08.409Z,6.73
2022-11-23T08:57:35.610Z,6.83
2022-11-23T09:00:03.791Z,6.90
2022-11-23T09:02:30.651Z,6.99
2022-11-23T09:04:57.482Z,7.03
2022-11-23T09:07:24.397Z,7.09
2022-11-23T09:09:51.229Z,6.97
2022-11-23T09:12:18.121Z,7.04
2022-11-23T09:14:45.000Z,7.13
2022-11-23T09:17:11.759Z,7.15
2022-11-23T09:19:38.638Z,7.19
2022-11-23T09:22:05.483Z,7.22
2022-11-23T09:24:32.753Z,7.27
2022-11-23T09:26:59.914Z,7.26
2022-11-23T09:29:26.872Z,7.35
2022-11-23T09:31:53.752Z,7.39
2022-11-23T09:34:20.735Z,7.38
2022-11-23T09:36:47.836Z,7.48
2022-11-23T09:39:14.772Z,7.49
2022-11-23T09:42:09.950Z,7.55
2022-11-23T09:45:11.228Z,7.46
2022-11-23T09:47:42.474Z,7.63
2022-11-23T09:50:28.197Z,7.67
2022-11-23T09:52:55.502Z,7.72
2022-11-23T09:55:42.093Z,7.69
2022-11-23T09:58:16.457Z,7.82
2022-11-23T10:01:08.304Z,7.93
2022-11-23T10:03:42.663Z,7.91
2022-11-23T10:06:29.070Z,7.95
2022-11-23T10:09:22.387Z,7.99
2022-11-23T10:12:10.181Z,8.03
2022-11-23T10:15:24.152Z,7.97
2022-11-23T10:18:13.291Z,8.11
2022-11-23T10:20:51.799Z,8.14
2022-11-23T10:23:34.416Z,8.16
2022-11-23T10:26:01.255Z,8.21
2022-11-23T10:28:31.634Z,8.28
2022-11-23T10:31:11.565Z,8.31
2022-11-23T10:34:04.886Z,8.33
2022-11-23T10:36:35.460Z,8.38
2022-11-23T10:39:05.383Z,8.43
2022-11-23T10:41:32.279Z,8.50
2022-11-23T10:44:26.714Z,8.57
2022-11-23T10:46:53.703Z,8.59
2022-11-23T10:49:24.576Z,8.54
2022-11-23T10:52:26.022Z,8.63
2022-11-23T10:54:56.305Z,8.57
2022-11-23T10:57:42.477Z,8.58
2022-11-23T11:00:15.429Z,8.79
2022-11-23T11:02:59.056Z,8.84
2022-11-23T11:08:31.861Z,8.97
2022-11-23T11:11:22.757Z,8.96
2022-11-23T11:13:49.893Z,8.96
2022-11-23T11:16:32.505Z,9.01
2022-11-23T11:19:00.782Z,9.00
2022-11-23T11:21:38.339Z,9.09
2022-11-23T11:24:20.331Z,9.13
2022-11-23T11:26:52.308Z,9.16
2022-11-23T11:29:45.257Z,9.19
2022-11-23T11:32:36.204Z,9.26
2022-11-23T11:35:20.818Z,9.34
2022-11-23T11:37:51.402Z,9.37
2022-11-23T11:40:39.061Z,9.32
2022-11-23T11:43:39.574Z,9.45
2022-11-23T11:46:31.132Z,9.68
2022-11-23T11:49:14.943Z,9.71
2022-11-23T11:51:50.074Z,9.70
2022-11-23T11:54:40.544Z,9.89
2022-11-23T11:57:20.197Z,10.07
2022-11-23T11:59:55.737Z,10.09
2022-11-23T12:02:42.603Z,10.10
2022-11-23T12:05:25.377Z,10.12
2022-11-23T12:08:24.959Z,10.16
2022-11-23T12:10:59.193Z,10.19
2022-11-23T12:13:32.503Z,10.34
2022-11-23T12:17:24.927Z,10.46
2022-11-23T12:20:31.116Z,10.42
2022-11-23T12:23:20.507Z,10.52
2022-11-23T12:26:21.426Z,10.47
2022-11-23T12:29:26.741Z,10.57
2022-11-23T12:32:17.100Z,10.72
2022-11-23T12:35:14.014Z,10.75
2022-11-23T12:37:55.804Z,10.74
2022-11-23T12:40:52.134Z,10.73
2022-11-23T12:43:24.329Z,10.76
2022-11-23T12:46:14.744Z,10.77
2022-11-23T12:49:04.689Z,10.99
2022-11-23T12:52:04.844Z,11.05
2022-11-23T12:54:40.783Z,10.94
2022-11-23T12:57:58.433Z,10.93
2022-11-23T13:00:35.030Z,10.97
2022-11-23T13:03:45.785Z,11.02
2022-11-23T13:06:15.123Z,10.99
2022-11-23T13:08:50.739Z,11.04
2022-11-23T13:12:14.148Z,11.05
2022-11-23T13:15:26.708Z,11.06
2022-11-23T13:18:19.024Z,11.05
2022-11-23T13:21:27.035Z,11.07
2022-11-23T13:23:53.974Z,11.13
2022-11-23T13:26:23.748Z,11.30
2022-11-23T13:29:00.357Z,11.46
2022-11-23T13:31:36.045Z,11.34
2022-11-23T13:34:43.606Z,11.28
2022-11-23T13:37:12.840Z,11.28
2022-11-23T13:39:51.786Z,11.32
2022-11-23T13:42:19.495Z,11.34
2022-11-23T13:44:46.250Z,11.38
2022-11-23T13:47:20.184Z,11.45
2022-11-23T13:49:53.116Z,11.58
2022-11-23T13:52:22.888Z,11.64
2022-11-23T13:55:10.946Z,11.53
2022-11-23T13:57:43.901Z,11.58
2022-11-23T14:00:52.462Z,11.60
2022-11-23T14:03:55.772Z,11.59
2022-11-23T14:06:47.092Z,11.63
2022-11-23T14:09:22.643Z,11.67
2022-11-23T14:11:59.304Z,11.77
2022-11-23T14:14:35.835Z,11.78
2022-11-23T14:17:36.173Z,11.72
2022-11-23T14:20:27.260Z,11.71
2022-11-23T14:23:42.174Z,11.72
2022-11-23T14:26:18.222Z,11.73
2022-11-23T14:29:07.774Z,11.73
2022-11-23T14:31:43.301Z,11.75
2022-11-23T14:34:48.208Z,11.71
2022-11-23T14:38:12.125Z,11.71
2022-11-23T14:41:06.627Z,11.66
2022-11-23T14:43:36.923Z,11.65
2022-11-23T14:46:07.181Z,11.69
2022-11-23T14:48:36.034Z,11.70
2022-11-23T14:51:06.729Z,11.68
2022-11-23T14:53:46.485Z,11.64
2022-11-23T14:56:35.557Z,11.61
2022-11-23T14:59:14.253Z,11.62
2022-11-23T15:01:47.372Z,11.61
2022-11-23T15:04:38.306Z,11.61
2022-11-23T15:07:23.340Z,11.58
2022-11-23T15:10:19.458Z,11.57
2022-11-23T15:12:48.849Z,11.54
2022-11-23T15:15:21.708Z,11.54
2022-11-23T15:17:56.032Z,11.52
2022-11-23T15:20:27.901Z,11.41
2022-11-23T15:22:54.938Z,11.49
2022-11-23T15:25:21.828Z,11.42
2022-11-23T15:27:49.282Z,11.46
2022-11-23T15:30:19.930Z,11.42
2022-11-23T15:33:05.299Z,11.35
2022-11-23T15:35:35.314Z,11.34
2022-11-23T15:38:04.458Z,11.31
2022-11-23T15:40:36.267Z,11.35
2022-11-23T15:43:03.941Z,11.34
2022-11-23T15:45:55.999Z,11.31
2022-11-23T15:48:29.283Z,11.27
2022-11-23T15:51:08.854Z,11.16
2022-11-23T15:53:51.253Z,11.18
2022-11-23T15:56:33.250Z,11.15
2022-11-23T15:59:14.644Z,11.09
2022-11-23T16:01:41.584Z,11.04
2022-11-23T16:04:27.821Z,11.01
2022-11-23T16:06:56.058Z,10.95
2022-11-23T16:09:53.798Z,10.88
2022-11-23T16:12:28.329Z,10.82
2022-11-23T16:15:34.125Z,10.83
2022-11-23T16:18:02.405Z,10.83
2022-11-23T16:20:29.829Z,10.77
2022-11-23T16:22:59.984Z,10.74
2022-11-23T16:25:31.643Z,10.66
2022-11-23T16:28:14.213Z,10.76
2022-11-23T16:30:44.334Z,10.75
2022-11-23T16:33:20.051Z,10.72
2022-11-23T16:35:47.595Z,10.71
2022-11-23T16:38:14.432Z,10.71
2022-11-23T16:40:45.742Z,10.69
2022-11-23T16:43:13.644Z,10.68
2022-11-23T16:45:44.400Z,10.66
2022-11-23T16:48:26.570Z,10.57
2022-11-23T16:50:55.138Z,10.55
2022-11-23T16:53:22.555Z,10.49
2022-11-23T16:55:57.720Z,10.54
2022-11-23T16:58:25.623Z,10.53
2022-11-23T17:00:52.468Z,10.52
2022-11-23T17:03:21.206Z,10.47
2022-11-23T17:05:48.502Z,10.51
2022-11-23T17:08:21.565Z,10.50
2022-11-23T17:10:50.997Z,10.43
2022-11-23T17:13:28.904Z,10.48
2022-11-23T17:15:55.997Z,10.45
2022-11-23T17:18:22.950Z,10.47
2022-11-23T17:20:49.847Z,10.46
2022-11-23T17:23:16.992Z,10.36
2022-11-23T17:25:43.911Z,10.30
2022-11-23T17:28:17.015Z,10.29
2022-11-23T17:30:43.888Z,10.34
2022-11-23T17:33:12.062Z,10.36
2022-11-23T17:35:39.965Z,10.30
2022-11-23T17:38:12.964Z,10.33
2022-11-23T17:40:39.860Z,10.33
2022-11-23T17:43:06.840Z,10.31
2022-11-23T17:45:34.336Z,10.32
2022-11-23T17:48:03.547Z,10.30
2022-11-23T17:50:30.675Z,10.24
2022-11-23T17:52:57.489Z,10.30
2022-11-23T17:55:24.259Z,10.29
2022-11-23T17:57:51.130Z,10.28
2022-11-23T18:00:21.711Z,10.32
2022-11-23T18:02:49.405Z,10.16
2022-11-23T18:05:21.453Z,10.12
2022-11-23T18:07:50.130Z,10.14
2022-11-23T18:10:17.587Z,10.11
2022-11-23T18:12:47.630Z,10.11
2022-11-23T18:15:14.426Z,10.11
2022-11-23T18:17:41.726Z,10.08
2022-11-23T18:20:10.050Z,10.08
2022-11-23T18:22:37.123Z,9.92
2022-11-23T18:25:04.488Z,10.00
2022-11-23T18:27:31.434Z,10.06
2022-11-23T18:29:58.331Z,10.04
2022-11-23T18:32:25.175Z,9.93
2022-11-23T18:34:52.019Z,10.02
2022-11-23T18:37:18.854Z,10.02
2022-11-23T18:39:45.927Z,9.86
2022-11-23T18:42:13.997Z,9.78
2022-11-23T18:44:40.777Z,9.75
2022-11-23T18:47:07.619Z,9.72
2022-11-23T18:49:34.815Z,9.78
2022-11-23T18:52:01.849Z,9.78
2022-11-23T18:54:28.684Z,9.77
2022-11-23T18:56:55.523Z,9.78
2022-11-23T18:59:56.263Z,9.76
2022-11-23T19:02:10.708Z,9.72
2022-11-23T19:04:38.667Z,9.71
2022-11-23T19:07:05.994Z,9.72
2022-11-23T19:09:33.084Z,9.75
2022-11-23T19:12:01.098Z,9.76
2022-11-23T19:14:28.004Z,9.75
2022-11-23T19:16:54.825Z,9.73
2022-11-23T19:19:21.741Z,9.75
2022-11-23T19:21:48.718Z,9.70
2022-11-23T19:24:15.502Z,9.73
2022-11-23T19:26:42.347Z,9.76
2022-11-23T19:29:09.205Z,9.77
2022-11-23T19:31:36.060Z,9.78
2022-11-23T19:34:06.047Z,9.68
2022-11-23T19:36:36.274Z,9.77
2022-11-23T19:39:05.395Z,9.72
2022-11-23T19:41:32.272Z,9.72
2022-11-23T19:44:00.961Z,9.70
2022-11-23T19:46:30.252Z,9.72
2022-11-23T19:48:58.129Z,9.75
2022-11-23T19:51:26.767Z,9.74
2022-11-23T19:53:56.889Z,9.75
2022-11-23T19:56:25.695Z,9.67
2022-11-23T19:58:55.626Z,9.71
2022-11-23T20:01:24.921Z,9.72
2022-11-23T20:03:55.453Z,9.70
2022-11-23T20:06:28.601Z,9.64
2022-11-23T20:09:01.658Z,9.64
2022-11-23T20:11:31.370Z,9.72
2022-11-23T20:13:58.972Z,9.71
2022-11-23T20:16:28.161Z,9.68
2022-11-23T20:19:06.717Z,9.68
2022-11-23T20:21:34.703Z,9.72
2022-11-23T20:24:09.879Z,9.67
2022-11-23T20:26:37.171Z,9.69
2022-11-23T20:29:05.957Z,9.73
2022-11-23T20:31:33.880Z,9.77
2022-11-23T20:34:00.984Z,9.76
2022-11-23T20:36:36.576Z,9.79
2022-11-23T20:39:07.084Z,9.78
2022-11-23T20:41:36.222Z,9.80
2022-11-23T20:44:12.413Z,9.81
2022-11-23T20:49:26.597Z,9.79
2022-11-23T20:51:53.447Z,9.83
2022-11-23T20:54:20.351Z,9.82
2022-11-23T20:56:47.157Z,9.81
2022-11-23T20:59:14.006Z,9.82
2022-11-23T21:01:41.004Z,9.82
2022-11-23T21:04:08.992Z,9.86
2022-11-23T21:06:39.558Z,9.87
2022-11-23T21:09:08.725Z,9.84
2022-11-23T21:11:54.199Z,9.92
2022-11-23T21:14:24.604Z,9.94
2022-11-23T21:16:59.359Z,9.97
2022-11-23T21:19:35.900Z,9.97
2022-11-23T21:22:11.964Z,9.97
2022-11-23T21:24:39.356Z,9.98
2022-11-23T21:27:08.837Z,10.01
2022-11-23T21:29:35.671Z,10.00
2022-11-23T21:32:02.582Z,10.00
2022-11-23T21:34:30.361Z,9.77
2022-11-23T21:36:58.034Z,9.98
2022-11-23T21:39:25.170Z,9.98
2022-11-23T21:41:53.677Z,10.00
2022-11-23T21:44:22.957Z,9.92
2022-11-23T21:46:50.271Z,9.98
2022-11-23T21:49:17.344Z,9.94
2022-11-23T21:51:45.502Z,9.94
2022-11-23T21:54:15.728Z,9.97
2022-11-23T21:56:45.032Z,9.86
2022-11-23T21:59:12.886Z,9.90
2022-11-23T22:01:40.340Z,9.88
2022-11-23T22:04:13.090Z,9.90
2022-11-23T22:06:42.083Z,9.87
2022-11-23T22:09:10.293Z,9.88
2022-11-23T22:11:40.862Z,9.87
2022-11-23T22:14:11.631Z,9.89
2022-11-23T22:16:47.241Z,9.91
2022-11-23T22:19:16.615Z,9.72
2022-11-23T22:21:45.088Z,9.86
2022-11-23T22:24:18.757Z,9.84
2022-11-23T22:26:47.513Z,9.79
2022-11-23T22:29:14.438Z,9.82
2022-11-23T22:31:41.710Z,9.81
2022-11-23T22:34:11.998Z,9.72
2022-11-23T22:36:38.995Z,9.80
2022-11-23T22:39:07.620Z,9.76
2022-11-23T22:41:36.841Z,9.78
2022-11-23T22:44:06.269Z,9.75
2022-11-23T22:46:33.189Z,9.74
2022-11-23T22:49:00.129Z,9.63
2022-11-23T22:51:28.782Z,9.72
2022-11-23T22:54:00.384Z,9.77
2022-11-23T22:56:29.129Z,9.76
2022-11-23T22:58:56.287Z,9.66
2022-11-23T23:01:29.657Z,9.63
2022-11-23T23:03:59.371Z,9.60
2022-11-23T23:06:29.297Z,9.60
2022-11-23T23:08:58.915Z,9.60
2022-11-23T23:11:29.154Z,9.56
2022-11-23T23:13:56.240Z,9.58
2022-11-23T23:16:23.830Z,9.32
2022-11-23T23:18:51.403Z,9.48
2022-11-23T23:21:20.609Z,9.40
2022-11-23T23:23:50.897Z,9.42
2022-11-23T23:26:21.115Z,9.43
2022-11-23T23:28:48.470Z,9.41
2022-11-23T23:31:16.955Z,9.40
2022-11-23T23:33:45.564Z,9.37
2022-11-23T23:36:19.642Z,9.28
2022-11-23T23:38:46.602Z,9.32
2022-11-23T23:41:14.501Z,9.26
2022-11-23T23:43:42.425Z,9.28
2022-11-23T23:46:12.280Z,9.27
2022-11-23T23:48:40.323Z,9.32
2022-11-23T23:51:13.161Z,9.23
2022-11-23T23:53:40.553Z,9.25
2022-11-23T23:56:16.034Z,9.29
2022-11-23T23:58:43.405Z,9.30
